Terminal Aerodrome Forecast
Issued by NWS

Home | Current Version | Previous Version | Graphics & Text | Print | Product List | Glossary On
Versions: 1 2 3 4 5 6 7 8 9 10 11 12 13 14 15 16 17 18 19 20 21 22
000
FTUS43 KABR 270536
TAFPIR
TAF
KPIR 270536Z 2706/2806 09008KT P6SM BKN150
      TEMPO 2707/2709 3SM TSRA BKN050CB
     FM271400 05010KT P6SM -SHRA OVC050
     FM271900 03017KT P6SM -RA OVC025=

USA.gov is the U.S. government's official web portal to all federal, state and local government web resources and services.